HSKO2: Arkansas River, Haskell, OK

                                SHEF ID:       HSKO2     Arkansas River near Haskell, OK
STATION TYPE:
Regulating: Stage = 18.00, Flow = 125429

PRECIP STAGE STAGE(2) RIV-FLOW BAT-LOAD
in ft ft cfs volt
Ccp-Rev Ccp-Rev Ccp-Rev Ccp-Rev Ccp-Rev
(America/Chicago)
04/24 00:00 0.00 4.71 4.80 5005 12.65
04/24 01:00 0.00 4.69 4.77 4951 12.65
04/24 02:00 0.00 4.73 4.77 5059 12.65
04/24 03:00 0.14 4.73 4.79 5059 ----
04/24 04:00 1.16 4.85 4.90 5391 12.57
04/24 05:00 0.17 4.92 4.93 5589 12.57
04/24 06:00 0.00 5.00 5.02 5821 12.57
04/24 07:00 0.00 5.17 5.21 6401 12.57
04/24 08:00 0.00 5.38 5.40 7165 12.49
04/24 09:00 0.00 5.56 5.58 7904 12.81
04/24 10:00 0.00 5.67 5.77 8374 13.60
04/24 11:00 0.00 5.88 5.93 9308 13.53
04/24 12:00 0.00 6.15 6.19 10580 13.37
04/24 13:00 0.00 6.54 6.60 12562 13.29
04/24 14:00 0.00 6.95 6.99 14827 13.21
04/24 15:00 0.00 7.26 7.31 16663 13.13
04/24 16:00 0.00 7.44 7.47 17778 13.05
04/24 17:00 0.00 7.51 7.53 18222 13.05
04/24 18:00 0.00 7.50 7.54 18158 13.05
04/24 19:00 0.00 7.44 7.45 17778 13.05
04/24 20:00 0.00 7.35 7.39 17216 13.05
04/24 21:00 0.00 7.22 7.26 16420 12.81
04/24 22:00 0.00 7.07 7.11 15525 12.73
04/24 23:00 0.00 6.93 6.97 14712 12.65
Data processed at Sat 25Apr2026 04:13 GMT

NOTICE: If you are parsing this page

Please convert to using our Data API. Starting early 2026 we will be migrating to: https://water.usace.army.mil with modern pages rendered in JavaScript. When this migration completes you will no longer be able to scrape this page! CWMSDataAPI (CDA)

Timeseries IDs (TSIDs)

TSIDs used from left to right in the data table
HASK.Precip-Inc.Total.1Hour.1Hour.Ccp-Rev
HASK.Stage.Inst.1Hour.0.Ccp-Rev
HASK.Stage-Alt.Inst.1Hour.0.Ccp-Rev
HASK.Flow.Inst.1Hour.0.Ccp-Rev
HASK.Volt-Battery Load.Inst.1Hour.0.Ccp-Rev

                            

All information presented herein is the property of the government of the United States of America and may be revised or deleted at any time without prior notice. Dissemination of this information without the expressed written consent of the Public Affairs Office, Tulsa District U.S. Army Corps of Engineers is strictly prohibited. These data are gathered electronically and, as presented, have NOT undergone any form of quality control. These data are NOT guaranteed to be valid or correct.